Chungribu Airport


Codes: PG-CVB/CVB
Name: Chungribu Airport
City: Chungribu
Country: Papua New Guinea
Elevation: 130 ft.

Photos at Chungribu Airport


   Photos courtesy of SpottingLog. You can add your own sightings and photos by signing up for a free trial today.



No photos found.

Weather at Chungribu Airport


Time (UTC)DescriptionTempratureWindCloud coverageVisibilityPressureHumidity
23-May-2024 21:00Overcast Clouds23°C0 mph, SE100%10000m1009hPa99%
24-May-2024 00:00Overcast Clouds28°C2 mph, E99%10000m1010hPa79%
24-May-2024 03:00Overcast Clouds34°C2 mph, NE100%10000m1007hPa50%
24-May-2024 06:00Light Rain27°C4 mph, N93%10000m1006hPa94%
24-May-2024 09:00Light Rain25°C2 mph, W99%10000m1008hPa98%
24-May-2024 12:00Broken Clouds24°C0 mph, SW81%10000m1010hPa99%
24-May-2024 15:00Scattered Clouds24°C2 mph, S49%10000m1009hPa99%
24-May-2024 18:00Broken Clouds24°C2 mph, SE73%10000m1008hPa99%
24-May-2024 21:00Overcast Clouds24°C2 mph, SE87%10000m1010hPa98%
25-May-2024 00:00Broken Clouds30°C4 mph, SE66%10000m1010hPa69%
25-May-2024 03:00Overcast Clouds35°C4 mph, E92%10000m1007hPa48%
25-May-2024 06:00Overcast Clouds31°C4 mph, N95%10000m1005hPa64%
25-May-2024 09:00Light Rain26°C2 mph, W97%10000m1008hPa88%
25-May-2024 12:00Light Rain24°C2 mph, S81%10000m1010hPa97%
25-May-2024 15:00Light Rain24°C2 mph, S19%10000m1009hPa99%
25-May-2024 18:00Light Rain23°C2 mph, SE38%10000m1009hPa99%
25-May-2024 21:00Overcast Clouds24°C2 mph, SE89%10000m1010hPa97%
26-May-2024 00:00Broken Clouds30°C4 mph, SE66%10000m1011hPa67%
26-May-2024 03:00Broken Clouds28°C4 mph, N66%10000m1008hPa79%
26-May-2024 06:00Light Rain27°C2 mph, NE82%5211m1006hPa90%
26-May-2024 09:00Light Rain25°C2 mph, S100%10000m1008hPa97%
26-May-2024 12:00Overcast Clouds24°C2 mph, SE100%10000m1010hPa98%
26-May-2024 15:00Overcast Clouds23°C2 mph, SE100%10000m1009hPa98%
26-May-2024 18:00Overcast Clouds23°C2 mph, SE99%10000m1008hPa98%
26-May-2024 21:00Scattered Clouds23°C2 mph, SE50%10000m1010hPa97%
27-May-2024 00:00Scattered Clouds30°C4 mph, SE47%10000m1010hPa66%
27-May-2024 03:00Few Clouds35°C4 mph, E12%10000m1007hPa47%
27-May-2024 06:00Few Clouds33°C2 mph, N15%10000m1005hPa53%
27-May-2024 09:00Light Rain26°C2 mph, SW66%10000m1007hPa85%
27-May-2024 12:00Broken Clouds25°C2 mph, S56%10000m1009hPa94%
27-May-2024 15:00Overcast Clouds24°C4 mph, SE95%10000m1008hPa95%
27-May-2024 18:00Broken Clouds23°C2 mph, SE83%10000m1007hPa98%
27-May-2024 21:00Overcast Clouds23°C2 mph, SE94%10000m1009hPa95%
28-May-2024 00:00Broken Clouds30°C4 mph, SE62%10000m1009hPa64%
28-May-2024 03:00Overcast Clouds31°C2 mph, NW96%10000m1007hPa62%
28-May-2024 06:00Overcast Clouds32°C2 mph, NE98%10000m1005hPa58%
28-May-2024 09:00Broken Clouds27°C2 mph, N52%10000m1007hPa87%
28-May-2024 12:00Broken Clouds25°C2 mph, SW61%10000m1010hPa94%
28-May-2024 15:00Broken Clouds24°C2 mph, S75%10000m1009hPa97%
28-May-2024 18:00Broken Clouds23°C2 mph, SE71%10000m1008hPa97%